Kosmosdale, Kentucky
Current Conditions -  °F | °C
As of 8:56 PM on Sunday 21 Dec 2014 (Local Time) from KSDF Reporting Station
Clear Clear  
Wind Chill: 35°   Ceiling: Unl
Heat Index: 35°   Visibility: 9mi
Dew Point: 28°   Wind: 3mph
Humidity: 76%   Direction: 80°E
Pressure: 30.12"   Gusts: NA
Location:  38.0866°N, 85.8492°W
Report Text: KSDF 220156Z 08003KT 9SM CLR 02/M02 A3012 RMK AO2 SLP203 T00171022
Loading
Personal Weather Stations






























Interactive Weather Map New forecast layout! Learn more

10-Day Weather Forecast

Advertisements
Track Severe Weather on mobile